createdAt,value
2019-05-02T00:01:10.291Z,47.53
2019-05-02T00:03:42.902Z,46.55
2019-05-02T00:06:13.119Z,39.78
2019-05-02T00:08:43.346Z,44.75
2019-05-02T00:11:13.797Z,46.20
2019-05-02T00:13:44.495Z,48.65
2019-05-02T00:16:15.449Z,50.45
2019-05-02T00:18:45.770Z,46.68
2019-05-02T00:21:16.427Z,47.25
2019-05-02T00:23:46.875Z,46.28
2019-05-02T00:26:17.055Z,49.23
2019-05-02T00:28:49.741Z,32.20
2019-05-02T00:31:21.537Z,49.13
2019-05-02T00:33:51.882Z,57.23
2019-05-02T00:36:22.059Z,54.75
2019-05-02T00:38:52.286Z,57.75
2019-05-02T00:41:42.514Z,64.27
2019-05-02T00:44:13.046Z,61.40
2019-05-02T00:46:43.262Z,69.40
2019-05-02T00:49:13.470Z,66.90
2019-05-02T00:51:44.934Z,64.53
2019-05-02T00:54:19.265Z,70.52
2019-05-02T00:56:47.054Z,66.45
2019-05-02T00:59:17.259Z,61.83
2019-05-02T01:01:50.925Z,60.85
2019-05-02T01:04:23.261Z,68.25
2019-05-02T01:06:54.686Z,66.05
2019-05-02T01:11:55.274Z,77.70
2019-05-02T01:14:27.032Z,101.87
2019-05-02T01:16:57.390Z,97.70
2019-05-02T01:19:27.671Z,105.90
2019-05-02T01:21:57.873Z,91.55
2019-05-02T01:24:29.377Z,99.95
2019-05-02T01:27:16.603Z,86.80
2019-05-02T01:29:49.819Z,102.87
2019-05-02T01:32:30.147Z,103.53
2019-05-02T01:34:59.063Z,110.48
2019-05-02T01:37:32.277Z,114.57
2019-05-02T01:40:02.617Z,113.95
2019-05-02T01:45:06.739Z,112.65
2019-05-02T01:47:37.159Z,111.60
2019-05-02T01:50:07.459Z,106.63
2019-05-02T01:52:37.807Z,123.58
2019-05-02T01:55:08.079Z,116.60
2019-05-02T01:57:39.922Z,108.12
2019-05-02T02:00:11.854Z,96.80
2019-05-02T02:02:42.036Z,92.55
2019-05-02T02:05:12.358Z,122.17
2019-05-02T02:07:42.620Z,102.62
2019-05-02T02:10:15.012Z,94.30
2019-05-02T02:13:02.920Z,100.75
2019-05-02T02:15:16.784Z,97.45
2019-05-02T02:17:51.263Z,103.58
2019-05-02T02:20:23.238Z,128.45
2019-05-02T02:23:14.108Z,120.50
2019-05-02T02:25:45.835Z,107.37
2019-05-02T02:28:34.411Z,118.17
2019-05-02T02:31:07.760Z,165.37
2019-05-02T02:33:40.815Z,152.60
2019-05-02T02:36:08.507Z,141.00
2019-05-02T02:38:38.779Z,159.10
2019-05-02T02:41:17.546Z,130.72
2019-05-02T02:43:54.629Z,133.40
2019-05-02T02:46:22.935Z,137.25
2019-05-02T02:48:53.145Z,115.28
2019-05-02T02:51:25.767Z,108.30
2019-05-02T02:54:02.700Z,92.65
2019-05-02T02:56:27.232Z,111.65
2019-05-02T02:58:57.433Z,116.93
2019-05-02T03:01:29.283Z,122.15
2019-05-02T03:04:01.959Z,121.82
2019-05-02T03:06:31.646Z,130.97
2019-05-02T03:09:01.836Z,116.42
2019-05-02T03:11:41.336Z,146.10
2019-05-02T03:14:19.577Z,128.57
2019-05-02T03:16:49.937Z,133.55
2019-05-02T03:19:21.408Z,135.32
2019-05-02T03:22:01.101Z,123.70
2019-05-02T03:24:28.650Z,141.50
2019-05-02T03:26:59.018Z,188.55
2019-05-02T03:29:39.265Z,168.70
2019-05-02T03:32:15.054Z,170.43
2019-05-02T03:34:47.163Z,156.35
2019-05-02T03:37:10.814Z,171.98
2019-05-02T03:39:37.740Z,170.53
2019-05-02T03:42:08.002Z,191.73
2019-05-02T03:44:38.216Z,207.72
2019-05-02T03:47:08.409Z,201.40
2019-05-02T03:49:41.037Z,201.12
2019-05-02T03:52:10.496Z,191.57
2019-05-02T03:54:49.761Z,228.60
2019-05-02T03:57:14.304Z,250.15
2019-05-02T03:59:44.506Z,210.67
2019-05-02T04:02:20.338Z,230.55
2019-05-02T04:04:46.614Z,206.57
2019-05-02T04:07:16.828Z,185.12
2019-05-02T04:09:47.044Z,170.57
2019-05-02T04:12:21.243Z,219.60
2019-05-02T04:14:55.605Z,163.30
2019-05-02T04:17:21.086Z,156.72
2019-05-02T04:19:51.292Z,141.50
2019-05-02T04:22:21.894Z,135.78
2019-05-02T04:24:56.772Z,128.85
2019-05-02T04:27:27.667Z,115.80
2019-05-02T04:29:57.279Z,81.50
2019-05-02T04:32:30.457Z,108.60
2019-05-02T04:35:00.663Z,107.30
2019-05-02T04:37:34.309Z,101.35
2019-05-02T04:40:08.104Z,92.60
2019-05-02T04:42:39.142Z,103.22
2019-05-02T04:45:21.646Z,96.57
2019-05-02T04:47:42.501Z,101.35
2019-05-02T04:50:18.124Z,100.55
2019-05-02T04:52:48.426Z,112.30
2019-05-02T04:55:26.147Z,117.22
2019-05-02T04:57:50.995Z,112.37
2019-05-02T05:00:29.196Z,106.35
2019-05-02T05:02:59.434Z,102.02
2019-05-02T05:05:31.276Z,88.37
2019-05-02T05:08:01.587Z,90.57
2019-05-02T05:10:39.952Z,87.95
2019-05-02T05:13:03.731Z,74.20
2019-05-02T05:15:41.128Z,75.65
2019-05-02T05:18:11.821Z,69.72
2019-05-02T05:20:40.354Z,67.47
2019-05-02T05:23:10.406Z,72.35
2019-05-02T05:25:42.410Z,69.15
2019-05-02T05:28:12.622Z,67.42
2019-05-02T05:30:45.424Z,67.05
2019-05-02T05:33:14.715Z,66.95
2019-05-02T05:35:50.967Z,62.60
2019-05-02T05:38:18.210Z,64.45
2019-05-02T05:40:50.302Z,66.45
2019-05-02T05:43:20.764Z,69.50
2019-05-02T05:45:56.604Z,46.23
2019-05-02T05:48:22.870Z,67.58
2019-05-02T05:50:53.091Z,66.17
2019-05-02T05:53:24.567Z,69.30
2019-05-02T05:55:58.909Z,63.65
2019-05-02T05:58:28.398Z,61.68
2019-05-02T06:00:59.701Z,65.08
2019-05-02T06:03:33.931Z,66.57
2019-05-02T06:06:01.882Z,67.62
2019-05-02T06:08:32.110Z,69.70
2019-05-02T06:11:02.366Z,69.20
2019-05-02T06:13:32.585Z,65.78
2019-05-02T06:16:03.405Z,69.35
2019-05-02T06:21:08.826Z,73.47
2019-05-02T06:23:41.250Z,69.50
2019-05-02T06:26:13.699Z,67.72
2019-05-02T06:28:43.263Z,69.47
2019-05-02T06:31:17.073Z,67.75
2019-05-02T06:33:46.594Z,74.00
2019-05-02T06:36:16.862Z,70.92
2019-05-02T06:38:47.110Z,68.95
2019-05-02T06:41:20.930Z,72.80
2019-05-02T06:43:49.495Z,72.42
2019-05-02T06:46:21.964Z,69.35
2019-05-02T06:48:52.238Z,67.97
2019-05-02T06:51:22.816Z,66.40
2019-05-02T06:53:53.021Z,70.40
2019-05-02T06:56:23.291Z,71.60
2019-05-02T06:58:53.518Z,71.22
2019-05-02T07:01:23.746Z,72.65
2019-05-02T07:03:53.964Z,69.65
2019-05-02T07:06:24.422Z,73.12
2019-05-02T07:08:54.990Z,71.47
2019-05-02T07:11:25.442Z,73.00
2019-05-02T07:14:31.898Z,73.43
2019-05-02T07:17:05.632Z,75.45
2019-05-02T07:19:38.390Z,70.22
2019-05-02T07:22:09.871Z,69.32
2019-05-02T07:24:40.088Z,66.62
2019-05-02T07:27:10.357Z,64.85
2019-05-02T07:29:40.823Z,66.30
2019-05-02T07:32:11.514Z,63.42
2019-05-02T07:34:44.144Z,60.00
2019-05-02T07:37:14.020Z,61.80
2019-05-02T07:39:44.278Z,60.67
2019-05-02T07:42:14.470Z,57.58
2019-05-02T07:44:44.693Z,56.45
2019-05-02T07:47:15.075Z,55.75
2019-05-02T07:49:45.292Z,54.90
2019-05-02T07:52:15.574Z,54.43
2019-05-02T07:54:45.819Z,51.50
2019-05-02T07:57:16.015Z,51.37
2019-05-02T07:59:46.271Z,51.25
2019-05-02T08:02:20.200Z,50.38
2019-05-02T08:04:48.499Z,47.17
2019-05-02T08:07:21.174Z,49.55
2019-05-02T08:09:50.652Z,48.02
2019-05-02T08:12:20.985Z,51.37
2019-05-02T08:15:13.196Z,50.70
2019-05-02T08:17:41.299Z,44.75
2019-05-02T08:20:13.595Z,44.40
2019-05-02T08:22:44.062Z,48.17
2019-05-02T08:25:15.322Z,42.62
2019-05-02T08:27:47.182Z,42.90
2019-05-02T08:30:40.316Z,46.37
2019-05-02T08:33:07.370Z,42.85
2019-05-02T08:35:37.578Z,42.40
2019-05-02T08:38:12.632Z,38.42
2019-05-02T08:40:42.422Z,42.50
2019-05-02T08:43:11.684Z,42.88
2019-05-02T08:48:12.550Z,50.88
2019-05-02T08:50:42.739Z,48.85
2019-05-02T08:53:14.285Z,48.13
2019-05-02T08:55:45.280Z,43.38
2019-05-02T08:58:17.132Z,46.08
2019-05-02T09:00:47.651Z,41.45
2019-05-02T09:03:18.179Z,44.08
2019-05-02T09:05:48.373Z,43.15
2019-05-02T09:08:18.681Z,46.73
2019-05-02T09:10:48.882Z,41.65
2019-05-02T09:13:26.443Z,42.00
2019-05-02T09:15:53.965Z,49.50
2019-05-02T09:18:29.996Z,54.67
2019-05-02T09:20:56.688Z,47.10
2019-05-02T09:23:31.940Z,47.38
2019-05-02T09:25:59.400Z,46.98
2019-05-02T09:28:29.639Z,51.63
2019-05-02T09:31:05.006Z,49.65
2019-05-02T09:33:32.267Z,50.73
2019-05-02T09:36:08.375Z,49.98
2019-05-02T09:38:38.630Z,50.20
2019-05-02T09:41:16.982Z,52.15
2019-05-02T09:43:42.534Z,48.75
2019-05-02T09:46:16.501Z,49.13
2019-05-02T09:48:44.775Z,45.08
2019-05-02T09:51:17.501Z,49.60
2019-05-02T09:53:47.119Z,45.60
2019-05-02T09:56:17.312Z,49.77
2019-05-02T09:58:49.306Z,44.48
2019-05-02T10:01:22.375Z,49.95
2019-05-02T10:03:52.694Z,49.70
2019-05-02T10:06:23.019Z,46.80
2019-05-02T10:08:54.742Z,51.53
2019-05-02T10:11:26.271Z,49.88
2019-05-02T10:13:56.630Z,49.25
2019-05-02T10:16:27.403Z,45.88
2019-05-02T10:19:00.351Z,50.92
2019-05-02T10:21:31.668Z,44.18
2019-05-02T10:24:03.700Z,52.60
2019-05-02T10:26:49.379Z,50.58
2019-05-02T10:29:21.004Z,58.58
2019-05-02T10:31:52.647Z,57.27
2019-05-02T10:34:23.084Z,56.15
2019-05-02T10:36:58.566Z,61.85
2019-05-02T10:39:28.520Z,59.38
2019-05-02T10:41:57.664Z,58.42
2019-05-02T10:44:34.863Z,64.55
2019-05-02T10:47:03.404Z,52.85
2019-05-02T10:49:35.257Z,51.83
2019-05-02T10:52:05.468Z,52.80
2019-05-02T10:54:37.553Z,52.95
2019-05-02T10:57:07.585Z,54.50
2019-05-02T10:59:37.819Z,55.70
2019-05-02T11:02:16.532Z,58.58
2019-05-02T11:04:52.492Z,56.48
2019-05-02T11:07:26.355Z,67.78
2019-05-02T11:09:57.336Z,64.65
2019-05-02T11:12:40.287Z,61.33
2019-05-02T11:15:08.234Z,64.87
2019-05-02T11:17:42.222Z,70.85
2019-05-02T11:20:12.575Z,72.67
2019-05-02T11:22:42.877Z,81.50
2019-05-02T11:25:13.073Z,79.07
2019-05-02T11:27:43.282Z,87.92
2019-05-02T11:30:16.770Z,90.97
2019-05-02T11:32:45.452Z,96.30
2019-05-02T11:35:15.668Z,92.33
2019-05-02T11:37:46.161Z,94.35
2019-05-02T11:40:16.430Z,97.63
2019-05-02T11:42:47.721Z,98.33
2019-05-02T11:45:17.927Z,98.12
2019-05-02T11:48:11.913Z,97.12
2019-05-02T11:50:42.248Z,99.03
2019-05-02T11:53:23.276Z,108.12
2019-05-02T11:55:44.600Z,112.62
2019-05-02T11:58:14.895Z,123.40
2019-05-02T12:00:49.429Z,120.75
2019-05-02T12:03:18.744Z,118.77
2019-05-02T12:05:48.960Z,127.67
2019-05-02T12:08:19.174Z,127.32
2019-05-02T12:10:49.377Z,136.62
2019-05-02T12:13:19.608Z,140.22
2019-05-02T12:15:51.764Z,134.72
2019-05-02T12:18:23.277Z,139.22
2019-05-02T12:20:53.713Z,125.00
2019-05-02T12:23:24.016Z,138.15
2019-05-02T12:25:54.315Z,145.35
2019-05-02T12:28:24.586Z,136.03
2019-05-02T12:30:54.858Z,155.48
2019-05-02T12:33:26.948Z,169.37
2019-05-02T12:35:57.132Z,147.45
2019-05-02T12:38:27.353Z,121.72
2019-05-02T12:40:58.002Z,141.53
2019-05-02T12:43:28.354Z,133.72
2019-05-02T12:45:58.545Z,119.65
2019-05-02T12:48:28.838Z,111.37
2019-05-02T12:50:59.026Z,112.17
2019-05-02T12:53:29.247Z,114.92
2019-05-02T12:55:59.439Z,118.40
2019-05-02T12:58:29.677Z,136.47
2019-05-02T13:00:59.873Z,106.40
2019-05-02T13:03:35.794Z,101.30
2019-05-02T13:06:06.070Z,108.37
2019-05-02T13:08:38.038Z,99.43
2019-05-02T13:11:24.989Z,92.57
2019-05-02T13:13:55.270Z,83.12
2019-05-02T13:16:25.464Z,84.90
2019-05-02T13:18:57.205Z,74.65
2019-05-02T13:21:41.486Z,59.95
2019-05-02T13:24:07.477Z,55.20
2019-05-02T13:26:36.274Z,58.30
2019-05-02T13:29:06.538Z,60.63
2019-05-02T13:31:38.500Z,63.05
2019-05-02T13:34:22.093Z,62.43
2019-05-02T13:36:53.977Z,67.30
2019-05-02T13:39:39.616Z,61.60
2019-05-02T13:42:09.900Z,49.23
2019-05-02T13:44:44.282Z,46.60
2019-05-02T13:47:16.122Z,48.33
2019-05-02T13:49:54.097Z,41.60
2019-05-02T13:52:18.399Z,44.33
2019-05-02T13:54:49.235Z,37.85
2019-05-02T13:57:21.643Z,41.75
2019-05-02T13:59:52.732Z,35.78
2019-05-02T14:02:33.951Z,37.33
2019-05-02T14:05:07.579Z,38.30
2019-05-02T14:07:38.455Z,34.35
2019-05-02T14:10:11.942Z,33.58
2019-05-02T14:12:44.054Z,27.10
2019-05-02T14:15:14.871Z,27.58
2019-05-02T14:17:45.139Z,29.35
2019-05-02T14:20:22.278Z,27.35
2019-05-02T14:22:52.826Z,29.75
2019-05-02T14:25:23.492Z,31.10
2019-05-02T14:27:55.735Z,32.93
2019-05-02T14:30:37.228Z,31.25
2019-05-02T14:33:02.396Z,35.73
2019-05-02T14:35:39.190Z,35.58
2019-05-02T14:38:13.666Z,30.75
2019-05-02T14:40:52.896Z,32.53
2019-05-02T14:43:46.151Z,31.50
2019-05-02T14:46:13.769Z,28.33
2019-05-02T14:48:45.330Z,29.45
2019-05-02T14:51:16.880Z,30.88
2019-05-02T14:53:47.862Z,28.15
2019-05-02T14:56:22.911Z,30.65
2019-05-02T14:58:53.169Z,28.23
2019-05-02T15:01:26.157Z,28.98
2019-05-02T15:03:58.300Z,32.33
2019-05-02T15:06:27.241Z,31.45
2019-05-02T15:08:57.498Z,30.77
2019-05-02T15:11:32.201Z,35.10
2019-05-02T15:14:00.568Z,29.10
2019-05-02T15:16:40.369Z,34.45
2019-05-02T15:19:33.446Z,30.10
2019-05-02T15:24:37.501Z,33.78
2019-05-02T15:27:11.661Z,34.95
2019-05-02T15:29:37.827Z,33.65
2019-05-02T15:32:15.603Z,39.70
2019-05-02T15:35:04.644Z,32.63
2019-05-02T15:37:35.968Z,34.45
2019-05-02T15:42:38.457Z,29.23
2019-05-02T15:45:08.895Z,32.80
2019-05-02T15:47:41.655Z,33.67
2019-05-02T15:50:14.765Z,35.20
2019-05-02T15:52:44.732Z,33.23
2019-05-02T15:55:14.929Z,32.70
2019-05-02T15:57:46.373Z,31.17
2019-05-02T16:00:25.707Z,31.95
2019-05-02T16:02:56.312Z,32.80
2019-05-02T16:05:26.914Z,33.45
2019-05-02T16:08:05.267Z,31.42
2019-05-02T16:10:31.587Z,33.88
2019-05-02T16:13:01.346Z,34.45
2019-05-02T16:15:32.645Z,33.55
2019-05-02T16:18:05.150Z,30.68
2019-05-02T16:20:49.169Z,28.90
2019-05-02T16:23:27.381Z,30.60
2019-05-02T16:25:52.407Z,26.20
2019-05-02T16:28:22.890Z,25.55
2019-05-02T16:30:54.786Z,27.52
2019-05-02T16:33:25.181Z,25.82
2019-05-02T16:35:55.454Z,19.77
2019-05-02T16:38:26.791Z,19.02
2019-05-02T16:41:01.700Z,15.35
2019-05-02T16:43:32.766Z,12.18
2019-05-02T16:46:06.829Z,11.68
2019-05-02T16:48:39.052Z,11.68
2019-05-02T16:51:27.597Z,12.90
2019-05-02T16:53:42.709Z,9.75
2019-05-02T16:56:12.938Z,8.03
2019-05-02T16:58:47.086Z,5.80
2019-05-02T17:01:23.595Z,7.17
2019-05-02T17:03:47.883Z,6.55
2019-05-02T17:06:22.468Z,8.50
2019-05-02T17:08:58.669Z,4.28
2019-05-02T17:11:32.351Z,7.25
2019-05-02T17:14:06.879Z,6.03
2019-05-02T17:16:34.493Z,5.78
2019-05-02T17:19:04.698Z,8.05
2019-05-02T17:21:52.247Z,6.90
2019-05-02T17:24:06.774Z,6.75
2019-05-02T17:26:36.946Z,9.75
2019-05-02T17:29:07.160Z,5.58
2019-05-02T17:31:37.342Z,4.45
2019-05-02T17:34:07.879Z,6.28
2019-05-02T17:36:38.091Z,8.10
2019-05-02T17:39:08.468Z,4.95
2019-05-02T17:41:42.393Z,4.72
2019-05-02T17:44:12.855Z,6.22
2019-05-02T17:46:44.144Z,6.15
2019-05-02T17:49:14.590Z,7.25
2019-05-02T17:52:05.773Z,8.40
2019-05-02T17:54:34.337Z,8.83
2019-05-02T17:57:04.531Z,9.18
2019-05-02T17:59:37.619Z,10.38
2019-05-02T18:02:11.623Z,5.25
2019-05-02T18:04:38.550Z,5.42
2019-05-02T18:07:08.842Z,6.75
2019-05-02T18:09:39.014Z,6.70
2019-05-02T18:12:12.681Z,11.35
2019-05-02T18:14:42.158Z,10.70
2019-05-02T18:17:12.807Z,6.97
2019-05-02T18:19:43.090Z,7.33
2019-05-02T18:22:23.567Z,5.33
2019-05-02T18:24:46.456Z,5.37
2019-05-02T18:27:16.732Z,5.42
2019-05-02T18:29:47.194Z,6.83
2019-05-02T18:32:22.132Z,9.98
2019-05-02T18:34:51.764Z,6.90
2019-05-02T18:37:21.892Z,6.95
2019-05-02T18:39:55.860Z,9.25
2019-05-02T18:42:25.634Z,8.83
2019-05-02T18:44:56.079Z,11.38
2019-05-02T18:47:26.306Z,7.05
2019-05-02T18:50:01.810Z,7.45
2019-05-02T18:52:38.043Z,12.20
2019-05-02T18:55:02.154Z,9.45
2019-05-02T18:57:32.623Z,3.70
2019-05-02T19:00:03.368Z,5.55
2019-05-02T19:02:35.613Z,9.15
2019-05-02T19:05:13.543Z,7.72
2019-05-02T19:07:38.353Z,7.37
2019-05-02T19:10:08.539Z,5.17
2019-05-02T19:12:38.791Z,4.45
2019-05-02T19:15:09.211Z,7.60
2019-05-02T19:17:40.513Z,6.83
2019-05-02T19:20:22.066Z,5.97
2019-05-02T19:22:56.308Z,7.35
2019-05-02T19:25:23.894Z,4.92
2019-05-02T19:27:57.578Z,6.77
2019-05-02T19:30:33.055Z,7.80
2019-05-02T19:33:07.677Z,8.03
2019-05-02T19:35:37.681Z,6.20
2019-05-02T19:38:07.246Z,7.03
2019-05-02T19:40:37.717Z,8.45
2019-05-02T19:43:07.954Z,7.13
2019-05-02T19:45:38.202Z,10.95
2019-05-02T19:48:08.415Z,5.67
2019-05-02T19:50:43.362Z,8.00
2019-05-02T19:53:18.009Z,6.15
2019-05-02T19:55:43.053Z,6.90
2019-05-02T19:58:17.237Z,4.95
2019-05-02T20:00:47.514Z,10.25
2019-05-02T20:03:21.647Z,5.08
2019-05-02T20:05:51.869Z,6.62
2019-05-02T20:08:24.519Z,6.62
2019-05-02T20:10:58.340Z,7.28
2019-05-02T20:13:29.648Z,5.83
2019-05-02T20:16:09.574Z,6.45
2019-05-02T20:18:43.819Z,8.63
2019-05-02T20:21:23.230Z,6.42
2019-05-02T20:23:45.146Z,6.92
2019-05-02T20:26:17.151Z,6.58
2019-05-02T20:31:17.090Z,4.65
2019-05-02T20:33:47.266Z,7.83
2019-05-02T20:36:17.541Z,8.00
2019-05-02T20:38:47.802Z,5.50
2019-05-02T20:41:18.049Z,8.60
2019-05-02T20:43:48.362Z,7.67
2019-05-02T20:46:18.596Z,5.08
2019-05-02T20:48:52.593Z,6.42
2019-05-02T20:51:24.109Z,9.00
2019-05-02T20:53:54.464Z,7.33
2019-05-02T20:56:24.687Z,10.10
2019-05-02T20:58:54.989Z,6.20
2019-05-02T21:01:25.285Z,10.15
2019-05-02T21:03:57.729Z,11.53
2019-05-02T21:06:40.890Z,10.53
2019-05-02T21:09:07.786Z,6.60
2019-05-02T21:12:02.320Z,11.18
2019-05-02T21:14:32.718Z,11.70
2019-05-02T21:17:03.461Z,7.15
2019-05-02T21:19:33.759Z,8.03
2019-05-02T21:22:06.389Z,7.55
2019-05-02T21:24:36.687Z,9.95
2019-05-02T21:27:07.001Z,10.20
2019-05-02T21:29:37.316Z,11.07
2019-05-02T21:32:07.641Z,12.53
2019-05-02T21:34:37.930Z,7.83
2019-05-02T21:37:08.237Z,16.17
2019-05-02T21:39:38.683Z,15.13
2019-05-02T21:42:08.929Z,10.43
2019-05-02T21:44:39.211Z,11.35
2019-05-02T21:47:09.792Z,17.12
2019-05-02T21:49:43.606Z,12.60
2019-05-02T21:52:31.865Z,12.18
2019-05-02T21:55:07.732Z,17.20
2019-05-02T21:57:38.036Z,11.05
2019-05-02T22:00:11.696Z,11.43
2019-05-02T22:02:43.580Z,11.50
2019-05-02T22:05:13.874Z,8.05
2019-05-02T22:07:44.095Z,8.68
2019-05-02T22:10:14.298Z,11.60
2019-05-02T22:12:44.669Z,15.93
2019-05-02T22:15:14.951Z,14.68
2019-05-02T22:17:45.369Z,11.95
2019-05-02T22:20:15.657Z,16.62
2019-05-02T22:22:45.978Z,10.13
2019-05-02T22:25:16.199Z,19.23
2019-05-02T22:27:46.433Z,17.50
2019-05-02T22:30:16.756Z,15.28
2019-05-02T22:32:47.089Z,21.00
2019-05-02T22:35:17.373Z,13.53
2019-05-02T22:37:49.247Z,17.15
2019-05-02T22:40:19.474Z,15.88
2019-05-02T22:42:49.783Z,12.78
2019-05-02T22:45:21.798Z,14.37
2019-05-02T22:47:52.291Z,13.15
2019-05-02T22:50:22.508Z,13.45
2019-05-02T22:52:52.747Z,17.92
2019-05-02T22:55:23.247Z,15.05
2019-05-02T22:57:53.486Z,19.27
2019-05-02T23:00:23.824Z,18.37
2019-05-02T23:02:54.160Z,13.78
2019-05-02T23:05:24.400Z,17.17
2019-05-02T23:07:54.671Z,16.75
2019-05-02T23:10:24.949Z,18.33
2019-05-02T23:12:55.184Z,11.60
2019-05-02T23:15:25.393Z,26.25
2019-05-02T23:17:55.702Z,15.10
2019-05-02T23:20:26.004Z,19.90
2019-05-02T23:23:14.992Z,19.65
2019-05-02T23:25:52.764Z,12.90
2019-05-02T23:28:24.641Z,16.48
2019-05-02T23:30:54.920Z,9.15
2019-05-02T23:33:26.788Z,12.78
2019-05-02T23:35:57.007Z,13.43
2019-05-02T23:38:27.376Z,16.93
2019-05-02T23:40:58.727Z,20.35
2019-05-02T23:43:28.965Z,18.05
2019-05-02T23:45:59.251Z,14.68
2019-05-02T23:48:29.564Z,15.18
2019-05-02T23:51:02.568Z,18.92
2019-05-02T23:53:33.009Z,19.55
2019-05-02T23:56:03.221Z,14.93
2019-05-02T23:58:36.095Z,14.10
